Time;durP1;ratioP1;P1;durP2;ratioP2;P2;SDS_P1;SDS_P2;PMS_P1;PMS_P2;Temp;Humidity;BMP_temperature;BMP_pressure;BME280_temperature;BME280_humidity;BME280_pressure;Samples;Min_cycle;Max_cycle;Signal;HPM_P1;HPM_P2
2021/08/07 00:01:56;;;;;;;12.35;2.90;;;;;;;14.40;79.31;100486.19;5036314;28;20450;-75
2021/08/07 00:04:21;;;;;;;12.18;2.53;;;;;;;14.39;79.68;100485.38;5036378;28;20409;-75
2021/08/07 00:06:47;;;;;;;8.63;2.85;;;;;;;14.32;79.88;100486.25;5035765;28;20516;-75
2021/08/07 00:09:12;;;;;;;17.45;3.45;;;;;;;14.24;79.89;100477.22;5036288;28;20030;-75
2021/08/07 00:11:37;;;;;;;12.73;2.95;;;;;;;14.17;80.48;100478.91;5036121;28;20038;-75
2021/08/07 00:14:03;;;;;;;12.35;3.20;;;;;;;14.12;80.22;100478.56;5035776;28;20037;-75
2021/08/07 00:16:28;;;;;;;10.55;2.80;;;;;;;14.14;80.19;100484.59;5036175;28;20030;-75
2021/08/07 00:18:54;;;;;;;13.00;3.00;;;;;;;14.13;80.22;100474.09;5035685;28;20121;-75
2021/08/07 00:21:19;;;;;;;10.02;3.22;;;;;;;14.10;80.29;100483.28;5035837;28;20063;-75
2021/08/07 00:23:44;;;;;;;13.85;3.03;;;;;;;14.07;80.01;100479.09;5036161;28;20032;-76
2021/08/07 00:26:10;;;;;;;12.60;3.25;;;;;;;14.03;79.97;100484.94;5036189;28;20045;-75
2021/08/07 00:28:35;;;;;;;15.90;3.47;;;;;;;13.97;80.71;100482.97;5035678;28;20029;-75
2021/08/07 00:31:01;;;;;;;13.70;2.92;;;;;;;13.91;80.86;100487.16;5035795;28;20057;-75
2021/08/07 00:33:26;;;;;;;14.55;3.05;;;;;;;13.88;80.41;100487.47;5035822;28;20036;-75
2021/08/07 00:35:51;;;;;;;15.52;3.63;;;;;;;13.86;80.34;100497.53;5017633;28;20048;-75
2021/08/07 00:38:17;;;;;;;16.60;3.08;;;;;;;13.82;80.81;100486.31;5036008;28;20415;-75
2021/08/07 00:40:42;;;;;;;11.20;2.50;;;;;;;13.80;80.61;100495.53;5035588;28;20397;-75
2021/08/07 00:43:09;;;;;;;12.35;3.25;;;;;;;13.74;80.90;100492.50;5017731;28;20121;-75
2021/08/07 00:45:36;;;;;;;15.50;3.22;;;;;;;13.70;81.28;100491.19;5035603;28;20060;-75
2021/08/07 00:48:02;;;;;;;12.07;2.75;;;;;;;13.67;81.35;100494.19;5018036;28;20066;-75
2021/08/07 00:50:27;;;;;;;18.08;2.83;;;;;;;13.69;80.52;100491.34;5017924;28;20063;-75
2021/08/07 00:52:53;;;;;;;10.43;2.67;;;;;;;13.69;81.03;100483.31;5035663;28;20037;-75
2021/08/07 00:55:18;;;;;;;12.63;2.95;;;;;;;13.66;80.68;100475.63;5034977;28;20040;-75
2021/08/07 00:57:43;;;;;;;18.98;3.20;;;;;;;13.64;80.69;100477.66;5035986;28;20038;-75
2021/08/07 01:00:09;;;;;;;15.30;3.17;;;;;;;13.60;80.71;100470.97;5035616;28;20034;-75
2021/08/07 01:02:34;;;;;;;17.95;3.17;;;;;;;13.57;80.73;100472.97;5035109;28;20037;-75
2021/08/07 01:05:13;;;;;;;9.27;2.47;;;;;;;13.53;81.72;100477.00;5035665;28;20062;-75
2021/08/07 01:08:15;;;;;;;15.77;3.30;;;;;;;13.52;80.84;100469.13;5035697;28;20041;-75
2021/08/07 01:11:14;;;;;;;19.55;4.47;;;;;;;13.49;80.53;100472.97;5035504;28;20526;-75
2021/08/07 01:13:53;;;;;;;22.05;3.30;;;;;;;13.50;81.16;100471.16;5036052;28;20105;-75
2021/08/07 01:16:29;;;;;;;21.75;3.42;;;;;;;13.48;81.04;100465.13;5036176;28;20025;-74
2021/08/07 01:18:56;;;;;;;15.52;3.55;;;;;;;13.46;80.50;100459.94;5035892;28;20026;-75
2021/08/07 01:21:59;;;;;;;19.15;3.83;;;;;;;13.45;81.58;100473.47;5036615;28;20029;-75
2021/08/07 01:24:56;;;;;;;15.15;3.22;;;;;;;13.43;81.56;100472.81;5034440;28;20029;-75
2021/08/07 01:27:30;;;;;;;11.07;2.53;;;;;;;13.42;80.75;100468.47;5029556;28;20048;-75
2021/08/07 01:29:57;;;;;;;21.25;3.42;;;;;;;13.39;81.39;100466.94;5018825;28;20048;-76
2021/08/07 01:32:29;;;;;;;11.68;2.70;;;;;;;13.37;80.98;100466.28;5017775;28;20030;-74
2021/08/07 01:34:55;;;;;;;;;;;;;;;13.32;81.46;100464.09;5035373;28;20034;-76
2021/08/07 01:37:22;;;;;;;20.00;3.42;;;;;;;13.26;81.83;100453.25;5034451;28;19968;-75
2021/08/07 01:39:49;;;;;;;17.50;2.65;;;;;;;13.22;81.95;100466.09;5035307;28;20041;-75
2021/08/07 01:42:15;;;;;;;18.60;3.17;;;;;;;13.20;82.27;100463.59;5034976;28;20044;-75
2021/08/07 01:44:40;;;;;;;18.02;3.05;;;;;;;13.20;82.20;100452.91;5034225;28;20123;-75
2021/08/07 01:47:38;;;;;;;19.80;3.65;;;;;;;13.25;83.09;100454.25;5017398;28;20037;-75
2021/08/07 01:50:44;;;;;;;20.02;3.40;;;;;;;13.30;82.12;100443.88;5027017;28;20103;-75
2021/08/07 01:53:11;;;;;;;12.25;3.08;;;;;;;13.26;82.29;100440.72;5034216;28;20030;-75
2021/08/07 01:55:55;;;;;;;16.52;3.05;;;;;;;13.30;82.43;100433.19;5016530;28;20029;-75
2021/08/07 01:58:25;;;;;;;15.07;3.13;;;;;;;13.32;82.75;100428.53;5034165;28;20358;-74
2021/08/07 02:00:52;;;;;;;15.93;3.27;;;;;;;13.30;82.31;100435.88;5034574;28;20030;-75
2021/08/07 02:03:18;;;;;;;19.02;2.97;;;;;;;13.24;82.81;100429.34;5016660;28;20056;-75
2021/08/07 02:05:45;;;;;;;24.50;3.38;;;;;;;13.19;83.58;100434.38;5033502;28;20512;-75
2021/08/07 02:08:12;;;;;;;21.00;3.33;;;;;;;13.10;83.16;100435.38;5034519;28;20116;-75
2021/08/07 02:10:43;;;;;;;18.08;3.55;;;;;;;13.07;83.74;100433.03;5034528;28;20072;-74
2021/08/07 02:13:11;;;;;;;26.90;3.53;;;;;;;13.03;83.87;100446.72;5034408;28;20359;-75
2021/08/07 02:15:37;;;;;;;12.40;2.90;;;;;;;13.02;84.35;100446.88;5033557;28;20760;-75
2021/08/07 02:18:03;;;;;;;18.20;3.22;;;;;;;13.03;84.55;100443.19;5033800;28;20057;-75
2021/08/07 02:20:28;;;;;;;18.80;3.00;;;;;;;13.02;83.62;100438.88;5016164;28;20124;-75
2021/08/07 02:22:55;;;;;;;18.75;3.55;;;;;;;13.05;84.04;100450.03;5034131;28;20120;-75
2021/08/07 02:25:21;;;;;;;14.90;3.00;;;;;;;13.05;84.24;100442.03;5033392;28;20095;-75
2021/08/07 02:27:49;;;;;;;13.65;2.85;;;;;;;13.04;84.02;100442.19;5033831;28;20392;-74
2021/08/07 02:30:14;;;;;;;12.93;3.28;;;;;;;13.00;84.36;100443.50;5033327;28;20035;-76
2021/08/07 02:32:42;;;;;;;17.98;3.38;;;;;;;13.00;83.52;100441.69;5015902;28;20127;-74
2021/08/07 02:35:10;;;;;;;16.63;3.55;;;;;;;13.07;83.57;100446.38;5033071;28;20443;-74
2021/08/07 02:37:36;;;;;;;14.50;3.38;;;;;;;13.05;83.85;100446.53;5015959;28;20029;-74
2021/08/07 02:40:05;;;;;;;17.33;3.08;;;;;;;13.08;83.28;100448.88;5015800;28;20044;-74
2021/08/07 02:42:31;;;;;;;13.85;3.15;;;;;;;13.07;83.57;100446.38;5033763;28;20036;-74
2021/08/07 02:44:57;;;;;;;14.95;3.40;;;;;;;13.03;83.65;100444.03;5033491;28;20056;-74
2021/08/07 02:47:24;;;;;;;14.52;2.88;;;;;;;13.02;83.64;100447.69;5033048;28;20098;-74
2021/08/07 02:49:49;;;;;;;14.88;2.85;;;;;;;13.02;84.19;100437.03;5033394;28;20037;-74
2021/08/07 02:52:15;;;;;;;17.08;3.60;;;;;;;12.99;83.68;100434.69;5033008;28;20034;-75
2021/08/07 02:54:42;;;;;;;13.90;2.97;;;;;;;12.96;84.09;100427.00;5015799;28;20034;-74
2021/08/07 02:57:07;;;;;;;11.57;3.17;;;;;;;12.93;83.98;100430.00;5033497;28;20083;-74
2021/08/07 02:59:33;;;;;;;13.93;2.83;;;;;;;12.94;84.14;100428.16;5015702;28;20033;-73
2021/08/07 03:01:58;;;;;;;16.55;3.50;;;;;;;12.91;84.23;100426.63;5033636;28;20041;-73
2021/08/07 03:04:24;;;;;;;17.83;3.20;;;;;;;12.95;83.83;100425.31;5033639;28;20029;-74
2021/08/07 03:06:50;;;;;;;16.23;3.42;;;;;;;12.95;83.58;100424.50;5032867;28;20458;-73
2021/08/07 03:09:15;;;;;;;18.35;3.63;;;;;;;12.97;83.83;100431.34;5033021;28;20088;-74
2021/08/07 03:11:41;;;;;;;12.35;3.10;;;;;;;12.94;84.17;100428.97;5033217;28;20047;-73
2021/08/07 03:14:06;;;;;;;12.98;2.80;;;;;;;12.94;84.17;100431.66;5032951;28;20030;-74
2021/08/07 03:16:32;;;;;;;19.15;3.53;;;;;;;12.93;84.29;100431.81;5033371;28;20140;-74
2021/08/07 03:18:57;;;;;;;16.55;3.45;;;;;;;12.89;84.83;100434.00;5015841;28;20084;-73
2021/08/07 03:21:22;;;;;;;13.70;3.28;;;;;;;12.87;84.87;100438.66;5033103;28;20091;-73
2021/08/07 03:23:48;;;;;;;13.10;3.33;;;;;;;12.86;85.06;100434.31;5015564;28;20127;-73
2021/08/07 03:26:13;;;;;;;12.40;3.40;;;;;;;12.83;85.00;100442.66;5033092;28;20030;-74
2021/08/07 03:28:39;;;;;;;17.70;3.75;;;;;;;12.82;85.47;100438.31;5033073;28;20040;-74
2021/08/07 03:31:04;;;;;;;16.30;3.80;;;;;;;12.83;84.89;100437.31;5033586;28;20034;-72
2021/08/07 03:33:30;;;;;;;11.80;3.10;;;;;;;12.83;85.13;100435.47;5015282;28;20042;-73
2021/08/07 03:35:56;;;;;;;13.82;3.88;;;;;;;12.81;85.24;100434.00;5033007;28;20033;-72
2021/08/07 03:38:21;;;;;;;16.27;3.38;;;;;;;12.79;85.02;100426.13;5032846;28;20390;-74
2021/08/07 03:40:46;;;;;;;19.38;3.50;;;;;;;12.79;85.50;100431.44;5032955;28;20065;-73
2021/08/07 03:43:12;;;;;;;18.52;3.50;;;;;;;12.81;85.12;100432.16;5032996;28;20048;-74
2021/08/07 03:45:38;;;;;;;17.55;3.17;;;;;;;12.83;85.32;100423.97;5032903;28;20115;-74
2021/08/07 03:48:03;;;;;;;18.73;3.17;;;;;;;12.88;84.71;100425.16;5036539;28;20428;-73
2021/08/07 03:50:29;;;;;;;18.20;3.25;;;;;;;12.93;84.49;100423.81;5036273;28;20045;-74
2021/08/07 03:52:54;;;;;;;18.30;3.58;;;;;;;12.96;84.68;100416.31;5036890;28;20124;-74
2021/08/07 03:55:20;;;;;;;16.00;3.20;;;;;;;13.00;84.24;100417.66;5036878;28;20064;-74
2021/08/07 03:58:03;;;;;;;15.05;2.92;;;;;;;13.03;84.02;100417.34;5036199;28;20077;-74
2021/08/07 04:00:31;;;;;;;14.25;2.72;;;;;;;13.13;83.69;100414.50;5036866;28;20033;-73
2021/08/07 04:02:57;;;;;;;17.70;2.92;;;;;;;13.18;83.76;100419.31;5036379;28;20025;-74
2021/08/07 04:05:23;;;;;;;12.95;3.40;;;;;;;13.24;83.01;100416.00;5036152;28;20060;-74
2021/08/07 04:07:49;;;;;;;14.80;3.17;;;;;;;13.27;83.20;100412.16;5036315;28;20041;-74
2021/08/07 04:10:16;;;;;;;16.77;2.90;;;;;;;13.28;83.25;100414.66;5036765;28;20103;-74
2021/08/07 04:12:42;;;;;;;10.52;2.90;;;;;;;13.30;83.65;100411.81;5036140;28;20366;-74
2021/08/07 04:15:08;;;;;;;13.68;3.03;;;;;;;13.36;83.14;100409.34;5036282;28;20450;-73
2021/08/07 04:17:38;;;;;;;12.88;3.00;;;;;;;13.37;83.19;100400.31;5035891;28;20541;-73
2021/08/07 04:20:06;;;;;;;9.80;2.53;;;;;;;13.32;83.21;100405.31;5036110;28;20363;-73
2021/08/07 04:22:32;;;;;;;11.43;2.78;;;;;;;13.27;82.63;100406.81;5035583;28;20029;-73
2021/08/07 04:24:57;;;;;;;12.23;3.17;;;;;;;13.21;83.03;100403.81;5036501;28;20095;-73
2021/08/07 04:27:22;;;;;;;17.40;3.38;;;;;;;13.15;82.96;100398.28;5035872;28;20064;-73
2021/08/07 04:29:48;;;;;;;18.35;3.38;;;;;;;13.08;83.25;100400.81;5036395;28;20057;-74
2021/08/07 04:32:14;;;;;;;14.27;2.78;;;;;;;13.03;83.78;100403.97;5035856;28;20531;-73
2021/08/07 04:34:39;;;;;;;15.90;2.83;;;;;;;12.97;83.69;100403.78;5035538;28;20079;-73
2021/08/07 04:37:05;;;;;;;15.18;2.88;;;;;;;12.95;83.72;100403.13;5002052;28;20042;-74
2021/08/07 04:39:30;;;;;;;18.80;3.17;;;;;;;12.99;83.98;100405.31;5035716;28;20510;-74
2021/08/07 04:41:56;;;;;;;14.68;3.42;;;;;;;12.97;83.93;100404.66;5018021;28;20120;-73
2021/08/07 04:44:21;;;;;;;17.17;3.20;;;;;;;12.94;84.31;100404.94;5017512;28;20063;-74
2021/08/07 04:46:46;;;;;;;10.88;2.92;;;;;;;12.91;84.16;100407.13;5035681;28;20140;-73
2021/08/07 04:49:12;;;;;;;14.90;3.10;;;;;;;12.92;84.37;100414.16;5036083;28;20029;-73
2021/08/07 04:51:37;;;;;;;23.80;3.33;;;;;;;12.90;84.01;100411.63;5035521;28;20083;-74
2021/08/07 04:54:04;;;;;;;13.55;2.80;;;;;;;12.96;84.15;100412.81;5035875;28;20549;-73
2021/08/07 04:56:29;;;;;;;21.40;3.42;;;;;;;12.99;84.45;100407.97;5035970;28;20044;-74
2021/08/07 04:58:55;;;;;;;13.45;2.83;;;;;;;13.07;84.41;100409.00;5017995;28;20112;-74
2021/08/07 05:01:20;;;;;;;21.25;3.42;;;;;;;13.19;83.64;100407.66;5035565;28;20068;-73
2021/08/07 05:03:46;;;;;;;13.90;2.83;;;;;;;13.25;83.49;100404.31;5035238;28;20116;-74
2021/08/07 05:06:11;;;;;;;16.08;3.35;;;;;;;13.32;83.20;100409.84;5035368;28;20049;-73
2021/08/07 05:08:37;;;;;;;11.27;2.63;;;;;;;13.48;82.80;100399.16;5035133;28;20036;-73
2021/08/07 05:11:03;;;;;;;13.20;3.13;;;;;;;13.50;82.84;100402.50;5018027;28;20037;-74
2021/08/07 05:13:29;;;;;;;12.80;3.45;;;;;;;13.49;83.17;100402.66;5035810;28;20037;-74
2021/08/07 05:15:54;;;;;;;17.88;3.63;;;;;;;13.47;82.99;100402.00;5018295;28;20083;-73
2021/08/07 05:18:19;;;;;;;15.02;3.00;;;;;;;13.47;83.38;100404.69;5017492;28;20045;-74
2021/08/07 05:20:45;;;;;;;14.55;2.75;;;;;;;13.57;83.39;100387.44;5034939;28;20462;-73
2021/08/07 05:23:10;;;;;;;20.17;3.30;;;;;;;13.58;83.27;100383.78;5035707;28;20086;-74
2021/08/07 05:25:35;;;;;;;14.68;3.80;;;;;;;13.62;83.67;100389.63;5034733;28;20049;-74
2021/08/07 05:28:01;;;;;;;16.58;3.75;;;;;;;13.61;83.74;100381.75;5035497;28;20466;-74
2021/08/07 05:30:26;;;;;;;19.70;4.18;;;;;;;13.62;84.04;100381.59;5035122;28;20033;-74
2021/08/07 05:32:51;;;;;;;13.70;3.40;;;;;;;13.64;83.87;100384.09;5034908;28;20042;-74
2021/08/07 05:35:17;;;;;;;19.65;3.13;;;;;;;13.67;83.83;100389.91;5035254;28;20033;-74
2021/08/07 05:37:43;;;;;;;18.83;3.33;;;;;;;13.80;83.43;100388.59;5016930;28;20033;-74
2021/08/07 05:40:10;;;;;;;17.60;3.47;;;;;;;13.88;83.58;100389.41;5017298;28;20481;-74
2021/08/07 05:42:35;;;;;;;15.02;4.15;;;;;;;13.96;83.59;100388.53;5034749;28;20040;-74
2021/08/07 05:45:02;;;;;;;18.50;3.35;;;;;;;14.11;83.15;100380.63;5034550;28;20401;-75
2021/08/07 05:47:27;;;;;;;10.45;2.83;;;;;;;14.25;82.02;100387.06;5034221;28;20068;-75
2021/08/07 05:49:53;;;;;;;10.65;3.25;;;;;;;14.39;81.43;100380.13;5034402;28;20544;-74
2021/08/07 05:52:18;;;;;;;13.40;2.90;;;;;;;14.54;81.20;100397.16;5034369;28;20115;-74
2021/08/07 05:54:44;;;;;;;9.95;2.50;;;;;;;14.72;80.25;100377.31;5034297;28;20534;-74
2021/08/07 05:57:09;;;;;;;14.45;2.67;;;;;;;14.89;80.39;100386.09;5034813;28;20112;-73
2021/08/07 05:59:34;;;;;;;16.33;3.03;;;;;;;15.04;79.88;100378.91;5016809;28;20041;-74
2021/08/07 06:02:00;;;;;;;18.17;2.83;;;;;;;15.16;78.58;100382.00;5034233;28;20040;-74
2021/08/07 06:04:25;;;;;;;10.23;2.67;;;;;;;15.29;77.84;100381.41;5034164;28;20032;-74
2021/08/07 06:06:51;;;;;;;13.18;2.97;;;;;;;15.37;77.29;100377.81;5033716;28;20060;-74
2021/08/07 06:09:16;;;;;;;14.25;2.88;;;;;;;15.43;77.05;100372.53;5034005;28;20026;-74
2021/08/07 06:11:41;;;;;;;12.93;2.50;;;;;;;15.50;76.76;100375.34;5033672;28;20529;-75
2021/08/07 06:14:07;;;;;;;12.77;3.08;;;;;;;15.52;76.90;100376.84;5034215;28;20429;-74
2021/08/07 06:16:33;;;;;;;15.00;2.40;;;;;;;15.50;76.66;100370.81;5033451;28;20040;-75
2021/08/07 06:18:58;;;;;;;16.88;3.03;;;;;;;15.51;77.12;100383.22;5016093;28;20107;-74
2021/08/07 06:21:23;;;;;;;10.30;2.50;;;;;;;15.53;77.56;100374.97;5033855;28;20076;-74
2021/08/07 06:23:49;;;;;;;11.23;2.58;;;;;;;15.55;76.37;100366.75;5033711;28;20367;-74
2021/08/07 06:26:15;;;;;;;12.27;2.45;;;;;;;15.57;77.42;100376.28;5033840;28;20382;-74
2021/08/07 06:28:41;;;;;;;16.25;2.78;;;;;;;15.58;77.49;100369.88;5033564;28;20397;-74
2021/08/07 06:31:06;;;;;;;8.07;2.45;;;;;;;15.59;76.89;100365.38;5033475;28;20025;-74
2021/08/07 06:33:33;;;;;;;11.68;2.63;;;;;;;15.64;77.29;100365.66;5033809;28;20428;-76
2021/08/07 06:36:00;;;;;;;10.10;2.55;;;;;;;15.70;77.37;100367.59;5033358;28;20045;-76
2021/08/07 06:38:25;;;;;;;9.63;2.45;;;;;;;15.81;76.28;100367.16;5033228;28;20470;-74
2021/08/07 06:40:51;;;;;;;14.73;2.88;;;;;;;15.94;75.96;100360.31;5033408;28;20109;-74
2021/08/07 06:43:16;;;;;;;12.52;2.40;;;;;;;16.06;75.39;100363.38;5033475;28;20068;-73
2021/08/07 06:45:41;;;;;;;11.77;2.33;;;;;;;16.10;75.06;100368.16;5033105;28;20064;-74
2021/08/07 06:48:07;;;;;;;13.73;2.97;;;;;;;16.16;74.63;100364.72;5033625;28;20063;-74
2021/08/07 06:50:32;;;;;;;11.30;2.80;;;;;;;16.19;74.61;100364.34;5033589;28;20467;-74
2021/08/07 06:52:58;;;;;;;12.90;2.67;;;;;;;16.28;75.25;100361.59;5032981;28;20099;-74
2021/08/07 06:55:23;;;;;;;9.57;2.60;;;;;;;16.40;74.95;100368.13;5015029;28;20037;-72
2021/08/07 06:57:48;;;;;;;12.13;2.50;;;;;;;16.54;73.84;100369.94;5033168;28;20033;-72
2021/08/07 07:00:14;;;;;;;7.28;2.55;;;;;;;16.74;72.23;100361.25;5033411;28;20104;-73
2021/08/07 07:02:39;;;;;;;9.57;2.38;;;;;;;16.76;72.75;100364.56;5033235;28;20484;-73
2021/08/07 07:05:05;;;;;;;7.50;2.70;;;;;;;16.65;72.96;100365.09;5033093;28;20521;-73
2021/08/07 07:07:31;;;;;;;12.95;2.85;;;;;;;16.67;72.83;100373.78;5015399;28;20042;-73
2021/08/07 07:09:56;;;;;;;10.70;2.53;;;;;;;16.74;73.15;100366.63;5032529;28;20576;-73
2021/08/07 07:12:21;;;;;;;9.32;2.95;;;;;;;17.08;71.14;100365.97;5032910;28;20466;-72
2021/08/07 07:14:47;;;;;;;12.82;3.10;;;;;;;17.28;70.39;100366.09;5032660;28;20123;-74
2021/08/07 07:17:12;;;;;;;7.68;2.97;;;;;;;17.41;70.67;100364.56;5032833;28;20034;-74
2021/08/07 07:19:38;;;;;;;8.48;2.60;;;;;;;17.60;69.41;100368.41;5033427;28;20127;-73
2021/08/07 07:22:04;;;;;;;10.98;2.75;;;;;;;17.79;69.67;100365.03;5034480;28;20055;-74
2021/08/07 07:24:30;;;;;;;9.20;2.53;;;;;;;17.84;68.34;100363.59;5036757;28;20034;-74
2021/08/07 07:26:55;;;;;;;8.88;2.60;;;;;;;17.87;66.90;100376.63;5036668;28;20040;-73
2021/08/07 07:29:21;;;;;;;10.98;2.53;;;;;;;17.87;67.58;100368.56;5036647;28;20080;-72
2021/08/07 07:31:46;;;;;;;11.65;2.85;;;;;;;17.93;67.25;100368.66;5036554;28;20038;-73
2021/08/07 07:34:11;;;;;;;9.95;2.38;;;;;;;17.96;68.97;100370.94;5036590;28;20041;-72
2021/08/07 07:36:37;;;;;;;9.48;2.22;;;;;;;17.91;67.60;100373.38;5036180;28;20037;-72
2021/08/07 07:39:03;;;;;;;9.98;2.50;;;;;;;17.93;67.93;100370.53;5018880;28;20117;-72
2021/08/07 07:41:28;;;;;;;16.45;2.53;;;;;;;17.81;68.89;100378.28;5036572;28;20030;-72
2021/08/07 07:43:54;;;;;;;10.75;2.10;;;;;;;17.80;69.67;100382.00;5036254;28;20489;-69
2021/08/07 07:46:19;;;;;;;9.07;2.70;;;;;;;17.59;70.29;100381.03;5036292;28;20037;-69
2021/08/07 07:48:45;;;;;;;11.73;4.00;;;;;;;17.36;72.44;100370.53;5036228;28;20033;-75
2021/08/07 07:51:10;;;;;;;6.47;2.13;;;;;;;17.07;73.46;100374.22;5036723;28;20038;-75
2021/08/07 07:53:35;;;;;;;8.05;2.25;;;;;;;16.86;72.72;100370.47;5036249;28;20033;-74
2021/08/07 07:56:02;;;;;;;5.07;2.00;;;;;;;16.88;72.95;100373.00;5036011;28;20037;-73
2021/08/07 07:58:28;;;;;;;7.82;2.70;;;;;;;16.95;73.58;100373.91;5036198;28;20462;-74
2021/08/07 08:00:54;;;;;;;5.72;2.05;;;;;;;17.14;72.98;100368.88;5036177;28;20041;-71
2021/08/07 08:03:19;;;;;;;7.40;1.90;;;;;;;17.37;72.13;100377.56;5036126;28;20037;-73
2021/08/07 08:05:45;;;;;;;8.73;2.60;;;;;;;17.48;71.56;100369.97;5035867;28;20049;-74
2021/08/07 08:08:11;;;;;;;7.75;2.13;;;;;;;17.59;71.73;100370.28;5035993;28;20119;-74
2021/08/07 08:10:38;;;;;;;8.27;2.08;;;;;;;17.73;71.48;100370.34;5036373;28;20038;-73
2021/08/07 08:13:04;;;;;;;7.25;2.20;;;;;;;17.80;69.24;100366.66;5035769;28;20029;-73
2021/08/07 08:15:29;;;;;;;5.50;2.05;;;;;;;17.84;69.25;100377.03;5035778;28;20029;-77
2021/08/07 08:17:55;;;;;;;8.85;2.63;;;;;;;17.89;69.67;100362.00;5017832;28;20049;-74
2021/08/07 08:20:20;;;;;;;4.95;1.80;;;;;;;17.88;68.30;100367.53;5036034;28;20073;-74
2021/08/07 08:22:46;;;;;;;6.15;2.33;;;;;;;18.04;68.92;100367.25;5035330;28;20446;-73
2021/08/07 08:25:12;;;;;;;6.90;2.08;;;;;;;18.15;67.00;100379.31;5035999;28;20053;-75
2021/08/07 08:27:38;;;;;;;5.57;2.28;;;;;;;18.31;67.08;100368.19;5035698;28;20038;-75
2021/08/07 08:30:05;;;;;;;6.97;2.33;;;;;;;18.36;67.39;100372.16;5035551;28;20033;-75
2021/08/07 08:32:30;;;;;;;6.15;2.17;;;;;;;18.51;66.36;100364.72;5034943;28;20033;-74
2021/08/07 08:34:55;;;;;;;8.15;2.67;;;;;;;18.49;67.15;100364.94;5035350;28;20363;-74
2021/08/07 08:37:21;;;;;;;6.78;3.28;;;;;;;18.44;66.65;100361.22;5035072;28;20038;-73
2021/08/07 08:39:46;;;;;;;6.70;2.58;;;;;;;18.87;65.48;100362.75;5017843;28;20092;-72
2021/08/07 08:42:11;;;;;;;6.68;2.55;;;;;;;19.34;63.83;100353.66;5017517;28;20033;-76
2021/08/07 08:44:38;;;;;;;12.18;2.85;;;;;;;19.30;63.28;100356.97;5035360;28;20112;-76
2021/08/07 08:47:04;;;;;;;8.45;2.72;;;;;;;18.85;64.73;100346.78;5035161;28;20068;-76
2021/08/07 08:49:32;;;;;;;8.13;2.72;;;;;;;19.13;64.46;100345.78;5035208;28;20029;-76
2021/08/07 08:52:01;;;;;;;8.80;2.83;;;;;;;19.64;63.49;100346.97;5035212;28;20033;-73
2021/08/07 08:54:27;;;;;;;7.55;2.70;;;;;;;20.06;62.74;100336.69;5035409;28;20032;-74
2021/08/07 08:56:53;;;;;;;10.18;2.63;;;;;;;20.44;60.88;100339.44;5034829;28;20034;-77
2021/08/07 08:59:20;;;;;;;9.93;3.88;;;;;;;20.81;59.40;100332.56;5035555;28;20057;-75
2021/08/07 09:01:45;;;;;;;9.13;2.70;;;;;;;21.17;57.62;100328.34;5034957;28;20041;-73
2021/08/07 09:04:10;;;;;;;8.02;2.60;;;;;;;21.01;57.66;100321.63;5034903;28;20103;-72
2021/08/07 09:06:36;;;;;;;7.78;2.53;;;;;;;21.19;56.48;100326.25;5016818;28;20092;-76
2021/08/07 09:09:09;;;;;;;5.13;2.55;;;;;;;21.62;55.35;100318.16;5034704;28;20033;-73
2021/08/07 09:11:39;;;;;;;7.78;2.30;;;;;;;21.76;54.87;100310.69;5034913;28;20032;-70
2021/08/07 09:14:26;;;;;;;8.00;2.72;;;;;;;21.53;54.29;100319.50;5034860;28;20033;-70
2021/08/07 09:16:58;;;;;;;8.13;2.42;;;;;;;21.49;53.36;100312.84;5017508;28;20394;-76
2021/08/07 09:19:24;;;;;;;7.90;2.40;;;;;;;21.86;54.44;100309.38;5034390;28;20486;-77
2021/08/07 09:22:22;;;;;;;8.15;2.70;;;;;;;22.94;51.60;100304.94;5017237;28;20110;-76
2021/08/07 09:25:02;;;;;;;9.82;2.58;;;;;;;24.37;47.33;100295.53;5035223;28;20026;-74
2021/08/07 09:27:46;;;;;;;5.97;2.15;;;;;;;25.27;45.84;100292.91;5034896;28;20080;-76
2021/08/07 09:30:17;;;;;;;5.85;2.10;;;;;;;24.99;44.86;100294.72;5034738;28;20040;-74
2021/08/07 09:32:54;;;;;;;9.40;2.40;;;;;;;25.08;45.12;100288.81;5035014;28;20045;-75
2021/08/07 09:35:37;;;;;;;7.07;2.40;;;;;;;25.07;45.48;100279.84;5034641;28;20091;-79
2021/08/07 09:38:04;;;;;;;8.75;2.05;;;;;;;25.66;43.69;100284.78;5016881;28;20088;-78
2021/08/07 09:40:41;;;;;;;5.07;1.83;;;;;;;25.16;44.20;100277.53;5035247;28;20083;-76
2021/08/07 09:43:08;;;;;;;3.95;1.80;;;;;;;24.77;45.24;100278.28;5034393;28;20033;-76
2021/08/07 09:45:34;;;;;;;6.72;2.03;;;;;;;25.24;44.50;100270.84;5033000;28;20504;-77
2021/08/07 09:48:02;;;;;;;4.28;1.77;;;;;;;26.13;41.62;100269.00;5034570;28;20037;-77
2021/08/07 09:50:30;;;;;;;6.22;1.80;;;;;;;26.81;41.34;100272.13;5034267;28;20026;-76
2021/08/07 09:52:57;;;;;;;6.18;1.98;;;;;;;26.03;41.43;100270.53;5034414;28;20032;-76
2021/08/07 09:55:23;;;;;;;9.10;1.80;;;;;;;25.75;42.12;100260.66;5034008;28;20112;-79
2021/08/07 09:58:12;;;;;;;5.65;1.88;;;;;;;26.47;39.95;100261.44;5034538;28;20117;-77
2021/08/07 10:00:43;;;;;;;4.70;2.10;;;;;;;27.21;39.34;100261.72;5034015;28;20029;-76
2021/08/07 10:03:21;;;;;;;5.93;1.63;;;;;;;27.34;38.40;100252.28;5033707;28;20055;-76
2021/08/07 10:05:47;;;;;;;3.90;1.58;;;;;;;26.60;39.02;100257.44;5033859;28;20077;-75
2021/08/07 10:08:13;;;;;;;4.40;2.00;;;;;;;26.67;40.43;100254.53;5033747;28;20041;-75
2021/08/07 10:10:40;;;;;;;5.22;1.92;;;;;;;26.04;40.24;100260.47;5033673;28;20029;-72
2021/08/07 10:13:08;;;;;;;9.15;2.13;;;;;;;25.63;42.43;100263.50;5034065;28;20040;-75
2021/08/07 10:15:36;;;;;;;6.80;2.00;;;;;;;25.49;41.40;100262.22;5015869;28;20485;-74
2021/08/07 10:18:02;;;;;;;7.00;1.90;;;;;;;25.94;43.11;100246.69;5033895;28;20034;-74
2021/08/07 10:20:28;;;;;;;3.55;1.60;;;;;;;26.70;39.83;100245.81;5033873;28;20040;-74
2021/08/07 10:22:54;;;;;;;7.30;2.05;;;;;;;27.14;38.21;100247.47;5033526;28;20069;-77
2021/08/07 10:25:22;;;;;;;4.18;2.10;;;;;;;26.09;40.62;100251.50;5016438;28;20416;-77
2021/08/07 10:27:51;;;;;;;5.95;1.80;;;;;;;24.71;43.28;100251.28;5016081;28;20091;-77
2021/08/07 10:30:17;;;;;;;5.47;2.40;;;;;;;24.03;45.24;100240.28;5033095;28;20026;-76
2021/08/07 10:32:44;;;;;;;5.55;1.85;;;;;;;23.82;46.89;100231.69;5033640;28;20025;-76
2021/08/07 10:35:12;;;;;;;6.00;1.83;;;;;;;24.47;46.42;100243.25;5033513;28;20061;-76
2021/08/07 10:37:38;;;;;;;5.60;1.98;;;;;;;25.43;43.10;100238.72;5033999;28;20131;-73
2021/08/07 10:40:05;;;;;;;3.55;1.73;;;;;;;24.79;43.54;100239.97;5033098;28;20397;-76
2021/08/07 10:42:32;;;;;;;4.55;1.95;;;;;;;25.31;42.82;100230.69;5032831;28;20061;-80
2021/08/07 10:44:58;;;;;;;4.70;1.88;;;;;;;25.88;41.40;100216.66;5033355;28;20068;-77
2021/08/07 10:47:38;;;;;;;6.22;2.20;;;;;;;25.39;42.87;100229.41;5033297;28;20072;-75
2021/08/07 10:50:25;;;;;;;3.78;1.77;;;;;;;25.44;41.96;100235.75;5033507;28;20033;-78
2021/08/07 10:52:52;;;;;;;5.82;1.80;;;;;;;25.36;41.49;100224.47;5015438;28;20079;-79
2021/08/07 10:55:41;;;;;;;2.80;1.60;;;;;;;26.11;39.88;100222.09;5033039;28;20482;-78
2021/08/07 10:58:34;;;;;;;4.72;1.95;;;;;;;26.14;39.09;100210.66;5033428;28;20030;-80
2021/08/07 11:01:24;;;;;;;5.35;1.60;;;;;;;27.19;37.90;100214.75;5032723;28;20477;-78
2021/08/07 11:04:02;;;;;;;5.45;1.60;;;;;;;27.87;35.37;100222.13;5033080;28;20044;-77
2021/08/07 11:06:48;;;;;;;4.35;1.60;;;;;;;26.85;36.37;100218.63;5032832;28;20049;-78
2021/08/07 11:09:19;;;;;;;7.43;1.60;;;;;;;25.54;39.59;100221.44;5033136;28;20033;-73
2021/08/07 11:11:45;;;;;;;8.65;1.73;;;;;;;24.81;40.85;100219.63;5032931;28;20373;-79
2021/08/07 11:14:26;;;;;;;5.05;1.60;;;;;;;24.33;40.36;100220.16;5032580;28;20030;-82
2021/08/07 11:17:05;;;;;;;5.30;1.57;;;;;;;23.72;42.29;100215.19;5032871;28;20147;-75
2021/08/07 11:19:50;;;;;;;7.05;1.83;;;;;;;24.03;43.27;100211.19;5032787;28;20049;-79
2021/08/07 11:22:41;;;;;;;4.38;1.80;;;;;;;25.17;39.28;100213.88;5032812;28;20021;-77
2021/08/07 11:25:16;;;;;;;5.45;1.80;;;;;;;25.57;38.10;100214.66;5012799;28;20040;-77